sensor_id;sensor_type;location;lat;lon;timestamp;pressure;altitude;pressure_sealevel;temperature;humidity
49459;BME280;35354;51.296;16.924;2023-04-08T00:00:31;99790.06;;;5.51;100.00
49459;BME280;35354;51.296;16.924;2023-04-08T00:02:56;99767.25;;;5.33;100.00
49459;BME280;35354;51.296;16.924;2023-04-08T00:05:21;99801.28;;;5.52;100.00
49459;BME280;35354;51.296;16.924;2023-04-08T00:07:47;99789.50;;;5.39;100.00
49459;BME280;35354;51.296;16.924;2023-04-08T00:10:12;99806.63;;;5.44;100.00
49459;BME280;35354;51.296;16.924;2023-04-08T00:12:37;99787.03;;;5.34;100.00
49459;BME280;35354;51.296;16.924;2023-04-08T00:15:03;99806.47;;;5.50;100.00
49459;BME280;35354;51.296;16.924;2023-04-08T00:17:28;99791.06;;;5.46;100.00
49459;BME280;35354;51.296;16.924;2023-04-08T00:19:53;99808.81;;;5.61;100.00
49459;BME280;35354;51.296;16.924;2023-04-08T00:22:19;99818.13;;;5.67;100.00
49459;BME280;35354;51.296;16.924;2023-04-08T00:24:45;99816.56;;;5.61;100.00
49459;BME280;35354;51.296;16.924;2023-04-08T00:27:10;99785.00;;;5.47;100.00
49459;BME280;35354;51.296;16.924;2023-04-08T00:29:35;99823.59;;;5.55;100.00
49459;BME280;35354;51.296;16.924;2023-04-08T00:32:01;99817.56;;;5.54;100.00
49459;BME280;35354;51.296;16.924;2023-04-08T00:34:27;99818.41;;;5.55;100.00
49459;BME280;35354;51.296;16.924;2023-04-08T00:36:52;99827.84;;;5.56;100.00
49459;BME280;35354;51.296;16.924;2023-04-08T00:39:17;99798.88;;;5.43;100.00
49459;BME280;35354;51.296;16.924;2023-04-08T00:41:43;99816.78;;;5.50;100.00
49459;BME280;35354;51.296;16.924;2023-04-08T00:44:08;99815.91;;;5.51;100.00
49459;BME280;35354;51.296;16.924;2023-04-08T00:46:36;99798.94;;;5.41;100.00
49459;BME280;35354;51.296;16.924;2023-04-08T00:49:02;99826.06;;;5.59;100.00
49459;BME280;35354;51.296;16.924;2023-04-08T00:51:28;99803.03;;;5.50;100.00
49459;BME280;35354;51.296;16.924;2023-04-08T00:53:55;99834.38;;;5.72;100.00
49459;BME280;35354;51.296;16.924;2023-04-08T00:56:21;99816.56;;;5.61;100.00
49459;BME280;35354;51.296;16.924;2023-04-08T00:58:48;99826.56;;;5.75;100.00
49459;BME280;35354;51.296;16.924;2023-04-08T01:09:29;99841.16;;;5.78;100.00
49459;BME280;35354;51.296;16.924;2023-04-08T01:11:57;99834.97;;;5.83;100.00
49459;BME280;35354;51.296;16.924;2023-04-08T01:14:25;99843.63;;;5.82;100.00
49459;BME280;35354;51.296;16.924;2023-04-08T01:16:54;99818.97;;;5.67;100.00
49459;BME280;35354;51.296;16.924;2023-04-08T01:19:29;99843.53;;;5.85;100.00
49459;BME280;35354;51.296;16.924;2023-04-08T01:22:14;99830.75;;;5.79;100.00
49459;BME280;35354;51.296;16.924;2023-04-08T01:24:44;99826.00;;;5.62;100.00
49459;BME280;35354;51.296;16.924;2023-04-08T01:27:13;99850.53;;;5.82;100.00
49459;BME280;35354;51.296;16.924;2023-04-08T01:29:40;99830.94;;;5.71;100.00
49459;BME280;35354;51.296;16.924;2023-04-08T01:32:08;99860.63;;;5.91;100.00
49459;BME280;35354;51.296;16.924;2023-04-08T01:34:35;99851.13;;;5.94;100.00
49459;BME280;35354;51.296;16.924;2023-04-08T01:37:03;99845.91;;;5.96;100.00
49459;BME280;35354;51.296;16.924;2023-04-08T01:39:29;99833.22;;;5.84;100.00
49459;BME280;35354;51.296;16.924;2023-04-08T01:41:56;99857.19;;;5.92;100.00
49459;BME280;35354;51.296;16.924;2023-04-08T01:44:23;99828.25;;;5.76;100.00
49459;BME280;35354;51.296;16.924;2023-04-08T01:46:51;99855.38;;;5.95;100.00
49459;BME280;35354;51.296;16.924;2023-04-08T01:49:17;99828.97;;;5.83;100.00
49459;BME280;35354;51.296;16.924;2023-04-08T01:51:43;99853.81;;;5.88;100.00
49459;BME280;35354;51.296;16.924;2023-04-08T01:54:10;99835.25;;;5.71;100.00
49459;BME280;35354;51.296;16.924;2023-04-08T01:56:38;99829.19;;;5.72;100.00
49459;BME280;35354;51.296;16.924;2023-04-08T01:59:09;99845.66;;;5.69;100.00
49459;BME280;35354;51.296;16.924;2023-04-08T02:01:35;99851.47;;;5.40;100.00
49459;BME280;35354;51.296;16.924;2023-04-08T02:04:02;99856.81;;;5.33;100.00
49459;BME280;35354;51.296;16.924;2023-04-08T02:06:28;99877.31;;;5.40;100.00
49459;BME280;35354;51.296;16.924;2023-04-08T02:08:55;99857.53;;;4.99;100.00
49459;BME280;35354;51.296;16.924;2023-04-08T02:11:20;99900.59;;;4.95;100.00
49459;BME280;35354;51.296;16.924;2023-04-08T02:13:46;99887.31;;;4.72;100.00
49459;BME280;35354;51.296;16.924;2023-04-08T02:16:18;99900.97;;;4.77;100.00
49459;BME280;35354;51.296;16.924;2023-04-08T02:18:54;99898.63;;;4.63;100.00
49459;BME280;35354;51.296;16.924;2023-04-08T02:21:21;99905.59;;;4.60;100.00
49459;BME280;35354;51.296;16.924;2023-04-08T02:23:49;99914.09;;;4.65;100.00
49459;BME280;35354;51.296;16.924;2023-04-08T02:26:16;99923.75;;;4.55;100.00
49459;BME280;35354;51.296;16.924;2023-04-08T02:28:43;99923.03;;;4.45;100.00
49459;BME280;35354;51.296;16.924;2023-04-08T02:31:11;99913.03;;;4.27;100.00
49459;BME280;35354;51.296;16.924;2023-04-08T02:33:38;99907.88;;;4.27;100.00
49459;BME280;35354;51.296;16.924;2023-04-08T02:36:04;99908.03;;;4.16;100.00
49459;BME280;35354;51.296;16.924;2023-04-08T02:38:30;99939.63;;;4.31;100.00
49459;BME280;35354;51.296;16.924;2023-04-08T02:40:56;99932.69;;;4.33;100.00
49459;BME280;35354;51.296;16.924;2023-04-08T02:43:21;99914.00;;;4.20;100.00
49459;BME280;35354;51.296;16.924;2023-04-08T02:45:51;99927.75;;;4.20;100.00
49459;BME280;35354;51.296;16.924;2023-04-08T02:48:16;99933.63;;;4.29;100.00
49459;BME280;35354;51.296;16.924;2023-04-08T02:50:42;99935.47;;;4.22;100.00
49459;BME280;35354;51.296;16.924;2023-04-08T02:53:08;99940.63;;;4.20;100.00
49459;BME280;35354;51.296;16.924;2023-04-08T02:55:33;99934.56;;;4.26;100.00
49459;BME280;35354;51.296;16.924;2023-04-08T02:57:58;99942.38;;;4.21;100.00
49459;BME280;35354;51.296;16.924;2023-04-08T03:00:24;99929.44;;;4.23;100.00
49459;BME280;35354;51.296;16.924;2023-04-08T03:02:49;99904.81;;;4.04;100.00
49459;BME280;35354;51.296;16.924;2023-04-08T03:05:15;99944.78;;;4.29;100.00
49459;BME280;35354;51.296;16.924;2023-04-08T03:07:41;99945.53;;;4.37;100.00
49459;BME280;35354;51.296;16.924;2023-04-08T03:10:06;99945.28;;;4.53;100.00
49459;BME280;35354;51.296;16.924;2023-04-08T03:12:32;99951.16;;;4.61;100.00
49459;BME280;35354;51.296;16.924;2023-04-08T03:14:57;99944.31;;;4.58;100.00
49459;BME280;35354;51.296;16.924;2023-04-08T03:17:23;99948.41;;;4.70;100.00
49459;BME280;35354;51.296;16.924;2023-04-08T03:19:48;99945.09;;;4.62;100.00
49459;BME280;35354;51.296;16.924;2023-04-08T03:22:13;99967.34;;;4.69;100.00
49459;BME280;35354;51.296;16.924;2023-04-08T03:24:38;99963.28;;;4.54;100.00
49459;BME280;35354;51.296;16.924;2023-04-08T03:27:04;99941.34;;;4.30;100.00
49459;BME280;35354;51.296;16.924;2023-04-08T03:29:29;99951.59;;;4.35;100.00
49459;BME280;35354;51.296;16.924;2023-04-08T03:31:55;99948.38;;;4.20;100.00
49459;BME280;35354;51.296;16.924;2023-04-08T03:34:20;99980.94;;;4.28;100.00
49459;BME280;35354;51.296;16.924;2023-04-08T03:36:45;99959.59;;;4.18;100.00
49459;BME280;35354;51.296;16.924;2023-04-08T03:39:11;99951.91;;;4.15;100.00
49459;BME280;35354;51.296;16.924;2023-04-08T03:41:36;99963.94;;;4.14;100.00
49459;BME280;35354;51.296;16.924;2023-04-08T03:44:01;99980.09;;;4.25;100.00
49459;BME280;35354;51.296;16.924;2023-04-08T03:46:27;99986.13;;;4.26;100.00
49459;BME280;35354;51.296;16.924;2023-04-08T03:48:52;99972.72;;;4.03;100.00
49459;BME280;35354;51.296;16.924;2023-04-08T03:51:18;99985.38;;;4.18;100.00
49459;BME280;35354;51.296;16.924;2023-04-08T03:53:43;99993.75;;;4.32;100.00
49459;BME280;35354;51.296;16.924;2023-04-08T03:56:08;99972.59;;;4.10;100.00
49459;BME280;35354;51.296;16.924;2023-04-08T03:58:34;99998.00;;;4.33;100.00
49459;BME280;35354;51.296;16.924;2023-04-08T04:00:59;99990.34;;;4.30;100.00
49459;BME280;35354;51.296;16.924;2023-04-08T04:03:24;99996.31;;;4.32;100.00
49459;BME280;35354;51.296;16.924;2023-04-08T04:05:50;99989.72;;;4.14;100.00
49459;BME280;35354;51.296;16.924;2023-04-08T04:08:15;100005.06;;;4.23;100.00
49459;BME280;35354;51.296;16.924;2023-04-08T04:10:41;100002.56;;;4.17;100.00
49459;BME280;35354;51.296;16.924;2023-04-08T04:13:06;99982.03;;;4.11;100.00
49459;BME280;35354;51.296;16.924;2023-04-08T04:15:32;99954.28;;;3.71;100.00
49459;BME280;35354;51.296;16.924;2023-04-08T04:17:57;100009.66;;;4.05;100.00
49459;BME280;35354;51.296;16.924;2023-04-08T04:20:22;100008.00;;;3.96;100.00
49459;BME280;35354;51.296;16.924;2023-04-08T04:22:50;100034.63;;;3.98;100.00
49459;BME280;35354;51.296;16.924;2023-04-08T04:25:15;100031.19;;;3.99;100.00
49459;BME280;35354;51.296;16.924;2023-04-08T04:27:40;100010.69;;;3.90;100.00
49459;BME280;35354;51.296;16.924;2023-04-08T04:30:07;100001.44;;;3.77;100.00
49459;BME280;35354;51.296;16.924;2023-04-08T04:32:33;100044.88;;;4.03;100.00
49459;BME280;35354;51.296;16.924;2023-04-08T04:34:59;100045.56;;;4.15;100.00
49459;BME280;35354;51.296;16.924;2023-04-08T04:37:24;100057.63;;;4.12;100.00
49459;BME280;35354;51.296;16.924;2023-04-08T04:39:50;100049.97;;;4.07;100.00
49459;BME280;35354;51.296;16.924;2023-04-08T04:42:15;100054.03;;;4.23;100.00
49459;BME280;35354;51.296;16.924;2023-04-08T04:44:41;100055.59;;;4.35;100.00
49459;BME280;35354;51.296;16.924;2023-04-08T04:47:06;100030.94;;;4.16;100.00
49459;BME280;35354;51.296;16.924;2023-04-08T04:49:31;100041.97;;;4.25;100.00
49459;BME280;35354;51.296;16.924;2023-04-08T04:51:57;100043.81;;;4.17;100.00
49459;BME280;35354;51.296;16.924;2023-04-08T04:54:22;100054.00;;;4.25;100.00
49459;BME280;35354;51.296;16.924;2023-04-08T04:56:47;100061.66;;;4.31;100.00
49459;BME280;35354;51.296;16.924;2023-04-08T04:59:13;100074.63;;;4.27;100.00
49459;BME280;35354;51.296;16.924;2023-04-08T05:01:38;100070.38;;;4.21;100.00
49459;BME280;35354;51.296;16.924;2023-04-08T05:04:05;100079.09;;;4.12;100.00
49459;BME280;35354;51.296;16.924;2023-04-08T05:06:31;100043.25;;;3.97;100.00
49459;BME280;35354;51.296;16.924;2023-04-08T05:08:56;100038.94;;;3.97;100.00
49459;BME280;35354;51.296;16.924;2023-04-08T05:11:21;100053.31;;;4.12;100.00
49459;BME280;35354;51.296;16.924;2023-04-08T05:13:46;100080.47;;;4.38;100.00
49459;BME280;35354;51.296;16.924;2023-04-08T05:16:12;100060.06;;;4.22;100.00
49459;BME280;35354;51.296;16.924;2023-04-08T05:18:37;100067.72;;;4.29;100.00
49459;BME280;35354;51.296;16.924;2023-04-08T05:21:03;100070.34;;;4.24;100.00
49459;BME280;35354;51.296;16.924;2023-04-08T05:23:28;100080.78;;;4.18;100.00
49459;BME280;35354;51.296;16.924;2023-04-08T05:25:53;100074.00;;;4.09;100.00
49459;BME280;35354;51.296;16.924;2023-04-08T05:28:19;100089.47;;;4.09;100.00
49459;BME280;35354;51.296;16.924;2023-04-08T05:30:49;100103.06;;;4.20;100.00
49459;BME280;35354;51.296;16.924;2023-04-08T05:33:14;100119.22;;;4.35;100.00
49459;BME280;35354;51.296;16.924;2023-04-08T05:35:40;100088.38;;;4.25;100.00
49459;BME280;35354;51.296;16.924;2023-04-08T05:38:05;100112.19;;;4.44;99.88
49459;BME280;35354;51.296;16.924;2023-04-08T05:40:31;100103.78;;;4.32;100.00
49459;BME280;35354;51.296;16.924;2023-04-08T05:42:57;100090.88;;;4.32;99.64
49459;BME280;35354;51.296;16.924;2023-04-08T05:45:22;100091.69;;;4.34;99.95
49459;BME280;35354;51.296;16.924;2023-04-08T05:47:47;100119.94;;;4.44;99.52
49459;BME280;35354;51.296;16.924;2023-04-08T05:50:12;100125.28;;;4.31;99.16
49459;BME280;35354;51.296;16.924;2023-04-08T05:52:42;100103.91;;;4.21;99.29
49459;BME280;35354;51.296;16.924;2023-04-08T05:55:09;100139.94;;;4.27;99.05
49459;BME280;35354;51.296;16.924;2023-04-08T05:57:35;100125.28;;;4.29;99.55
49459;BME280;35354;51.296;16.924;2023-04-08T06:00:00;100134.88;;;4.19;99.81
49459;BME280;35354;51.296;16.924;2023-04-08T06:02:25;100110.19;;;4.02;99.97
49459;BME280;35354;51.296;16.924;2023-04-08T06:04:51;100111.88;;;4.06;99.83
49459;BME280;35354;51.296;16.924;2023-04-08T06:07:16;100122.09;;;4.10;99.73
49459;BME280;35354;51.296;16.924;2023-04-08T06:09:41;100150.31;;;4.22;99.45
49459;BME280;35354;51.296;16.924;2023-04-08T06:12:06;100109.28;;;4.04;99.90
49459;BME280;35354;51.296;16.924;2023-04-08T06:14:32;100146.81;;;4.25;99.41
49459;BME280;35354;51.296;16.924;2023-04-08T06:16:57;100127.84;;;4.32;99.26
49459;BME280;35354;51.296;16.924;2023-04-08T06:19:22;100141.47;;;4.40;97.04
49459;BME280;35354;51.296;16.924;2023-04-08T06:21:48;100153.44;;;4.47;97.07
49459;BME280;35354;51.296;16.924;2023-04-08T06:24:15;100132.22;;;4.27;96.09
49459;BME280;35354;51.296;16.924;2023-04-08T06:26:40;100141.78;;;4.17;96.65
49459;BME280;35354;51.296;16.924;2023-04-08T06:29:06;100145.09;;;4.27;95.99
49459;BME280;35354;51.296;16.924;2023-04-08T06:31:32;100170.03;;;4.27;96.32
49459;BME280;35354;51.296;16.924;2023-04-08T06:33:57;100153.84;;;4.15;96.42
49459;BME280;35354;51.296;16.924;2023-04-08T06:36:22;100188.94;;;4.25;94.56
49459;BME280;35354;51.296;16.924;2023-04-08T06:38:48;100153.72;;;4.26;94.63
49459;BME280;35354;51.296;16.924;2023-04-08T06:41:13;100172.34;;;4.48;94.26
49459;BME280;35354;51.296;16.924;2023-04-08T06:43:38;100139.03;;;4.31;93.53
49459;BME280;35354;51.296;16.924;2023-04-08T06:46:04;100171.22;;;4.66;92.08
49459;BME280;35354;51.296;16.924;2023-04-08T06:48:29;100178.69;;;4.84;90.38
49459;BME280;35354;51.296;16.924;2023-04-08T06:50:55;100167.50;;;4.84;89.48
49459;BME280;35354;51.296;16.924;2023-04-08T06:53:22;100162.28;;;4.90;89.82
49459;BME280;35354;51.296;16.924;2023-04-08T06:55:48;100180.34;;;4.88;89.91
49459;BME280;35354;51.296;16.924;2023-04-08T06:58:14;100193.06;;;5.00;90.36
49459;BME280;35354;51.296;16.924;2023-04-08T07:00:41;100147.66;;;4.89;89.85
49459;BME280;35354;51.296;16.924;2023-04-08T07:03:06;100191.03;;;5.21;89.90
49459;BME280;35354;51.296;16.924;2023-04-08T07:05:31;100186.34;;;5.43;88.78
49459;BME280;35354;51.296;16.924;2023-04-08T07:07:56;100203.03;;;5.74;87.36
49459;BME280;35354;51.296;16.924;2023-04-08T07:10:22;100201.34;;;5.73;87.59
49459;BME280;35354;51.296;16.924;2023-04-08T07:12:47;100206.00;;;5.51;88.09
49459;BME280;35354;51.296;16.924;2023-04-08T07:15:12;100189.19;;;5.29;89.70
49459;BME280;35354;51.296;16.924;2023-04-08T07:17:38;100196.19;;;5.22;89.25
49459;BME280;35354;51.296;16.924;2023-04-08T07:20:04;100205.59;;;5.25;89.63
49459;BME280;35354;51.296;16.924;2023-04-08T07:22:30;100231.63;;;5.14;89.44
49459;BME280;35354;51.296;16.924;2023-04-08T07:24:55;100210.06;;;5.15;90.07
49459;BME280;35354;51.296;16.924;2023-04-08T07:27:20;100204.91;;;5.15;89.71
49459;BME280;35354;51.296;16.924;2023-04-08T07:29:46;100228.88;;;5.23;90.44
49459;BME280;35354;51.296;16.924;2023-04-08T07:32:11;100225.22;;;5.37;90.77
49459;BME280;35354;51.296;16.924;2023-04-08T07:34:36;100230.63;;;5.21;89.03
49459;BME280;35354;51.296;16.924;2023-04-08T07:37:02;100229.53;;;5.36;90.41
49459;BME280;35354;51.296;16.924;2023-04-08T07:39:27;100220.19;;;5.29;89.30
49459;BME280;35354;51.296;16.924;2023-04-08T07:41:52;100240.94;;;5.21;88.70
49459;BME280;35354;51.296;16.924;2023-04-08T07:44:18;100223.13;;;5.06;88.38
49459;BME280;35354;51.296;16.924;2023-04-08T07:46:44;100230.19;;;4.93;88.62
49459;BME280;35354;51.296;16.924;2023-04-08T07:49:15;100253.94;;;5.17;89.82
49459;BME280;35354;51.296;16.924;2023-04-08T07:51:40;100254.66;;;5.25;89.87
49459;BME280;35354;51.296;16.924;2023-04-08T07:54:06;100259.72;;;5.33;89.77
49459;BME280;35354;51.296;16.924;2023-04-08T07:56:32;100255.19;;;5.47;89.93
49459;BME280;35354;51.296;16.924;2023-04-08T07:58:57;100240.38;;;5.58;87.98
49459;BME280;35354;51.296;16.924;2023-04-08T08:01:22;100238.09;;;5.91;87.41
49459;BME280;35354;51.296;16.924;2023-04-08T08:03:49;100218.72;;;5.65;86.20
49459;BME280;35354;51.296;16.924;2023-04-08T08:06:15;100244.38;;;5.76;86.71
49459;BME280;35354;51.296;16.924;2023-04-08T08:08:41;100233.50;;;5.56;86.33
49459;BME280;35354;51.296;16.924;2023-04-08T08:11:06;100261.66;;;5.74;87.66
49459;BME280;35354;51.296;16.924;2023-04-08T08:13:32;100233.75;;;5.42;87.12
49459;BME280;35354;51.296;16.924;2023-04-08T08:15:58;100275.84;;;5.48;87.47
49459;BME280;35354;51.296;16.924;2023-04-08T08:18:23;100265.63;;;5.41;88.14
49459;BME280;35354;51.296;16.924;2023-04-08T08:20:48;100266.16;;;5.61;88.37
49459;BME280;35354;51.296;16.924;2023-04-08T08:23:14;100254.88;;;5.67;88.82
49459;BME280;35354;51.296;16.924;2023-04-08T08:25:39;100277.72;;;5.91;88.03
49459;BME280;35354;51.296;16.924;2023-04-08T08:28:05;100263.72;;;6.05;87.76
49459;BME280;35354;51.296;16.924;2023-04-08T08:30:30;100272.91;;;6.21;86.79
49459;BME280;35354;51.296;16.924;2023-04-08T08:32:55;100259.91;;;6.24;86.75
49459;BME280;35354;51.296;16.924;2023-04-08T08:35:23;100256.50;;;6.22;85.08
49459;BME280;35354;51.296;16.924;2023-04-08T08:37:48;100264.53;;;6.07;84.76
49459;BME280;35354;51.296;16.924;2023-04-08T08:40:14;100282.63;;;6.08;85.13
49459;BME280;35354;51.296;16.924;2023-04-08T08:42:40;100282.78;;;5.97;85.39
49459;BME280;35354;51.296;16.924;2023-04-08T08:45:06;100269.19;;;5.86;85.95
49459;BME280;35354;51.296;16.924;2023-04-08T08:47:32;100280.03;;;6.07;85.94
49459;BME280;35354;51.296;16.924;2023-04-08T08:49:57;100268.00;;;6.06;86.17
49459;BME280;35354;51.296;16.924;2023-04-08T08:52:23;100260.38;;;5.99;86.41
49459;BME280;35354;51.296;16.924;2023-04-08T08:54:56;100283.63;;;5.99;86.50
49459;BME280;35354;51.296;16.924;2023-04-08T08:57:21;100287.53;;;6.22;86.75
49459;BME280;35354;51.296;16.924;2023-04-08T08:59:47;100291.81;;;6.24;87.01
49459;BME280;35354;51.296;16.924;2023-04-08T09:02:28;100295.72;;;6.45;86.80
49459;BME280;35354;51.296;16.924;2023-04-08T09:05:04;100277.56;;;6.47;86.11
49459;BME280;35354;51.296;16.924;2023-04-08T09:07:31;100286.97;;;6.51;85.33
49459;BME280;35354;51.296;16.924;2023-04-08T09:09:59;100304.19;;;6.54;84.95
49459;BME280;35354;51.296;16.924;2023-04-08T09:12:25;100279.34;;;6.43;84.94
49459;BME280;35354;51.296;16.924;2023-04-08T09:15:08;100313.50;;;6.62;85.16
49459;BME280;35354;51.296;16.924;2023-04-08T09:17:38;100305.03;;;6.53;84.33
49459;BME280;35354;51.296;16.924;2023-04-08T09:20:04;100314.31;;;6.64;83.60
49459;BME280;35354;51.296;16.924;2023-04-08T09:22:33;100317.94;;;6.56;83.95
49459;BME280;35354;51.296;16.924;2023-04-08T09:24:59;100324.66;;;6.66;84.78
49459;BME280;35354;51.296;16.924;2023-04-08T09:27:36;100294.16;;;6.80;84.20
49459;BME280;35354;51.296;16.924;2023-04-08T09:30:17;100304.09;;;7.00;83.44
49459;BME280;35354;51.296;16.924;2023-04-08T09:32:50;100305.66;;;7.07;83.79
49459;BME280;35354;51.296;16.924;2023-04-08T09:35:19;100320.19;;;7.14;82.96
49459;BME280;35354;51.296;16.924;2023-04-08T09:37:45;100323.75;;;7.09;81.53
49459;BME280;35354;51.296;16.924;2023-04-08T09:40:11;100309.19;;;7.05;81.60
49459;BME280;35354;51.296;16.924;2023-04-08T09:42:39;100310.06;;;7.02;82.01
49459;BME280;35354;51.296;16.924;2023-04-08T09:45:09;100333.22;;;7.10;81.95
49459;BME280;35354;51.296;16.924;2023-04-08T09:47:43;100327.31;;;7.03;81.30
49459;BME280;35354;51.296;16.924;2023-04-08T09:50:11;100321.44;;;6.96;81.23
49459;BME280;35354;51.296;16.924;2023-04-08T09:52:43;100309.28;;;6.98;82.35
49459;BME280;35354;51.296;16.924;2023-04-08T09:55:12;100328.69;;;7.19;81.46
49459;BME280;35354;51.296;16.924;2023-04-08T09:57:46;100329.38;;;7.29;81.94
49459;BME280;35354;51.296;16.924;2023-04-08T10:00:16;100324.22;;;7.65;81.23
49459;BME280;35354;51.296;16.924;2023-04-08T10:02:53;100323.44;;;7.97;79.69
49459;BME280;35354;51.296;16.924;2023-04-08T10:05:21;100300.41;;;8.17;78.87
49459;BME280;35354;51.296;16.924;2023-04-08T10:07:48;100322.00;;;8.52;78.11
49459;BME280;35354;51.296;16.924;2023-04-08T10:10:16;100317.25;;;8.35;76.63
49459;BME280;35354;51.296;16.924;2023-04-08T10:12:42;100322.28;;;8.43;76.75
49459;BME280;35354;51.296;16.924;2023-04-08T10:15:27;100322.41;;;8.37;76.48
49459;BME280;35354;51.296;16.924;2023-04-08T10:23:07;100342.09;;;8.11;77.58
49459;BME280;35354;51.296;16.924;2023-04-08T10:25:37;100338.72;;;8.08;77.67
49459;BME280;35354;51.296;16.924;2023-04-08T10:30:51;100345.22;;;7.90;78.33
49459;BME280;35354;51.296;16.924;2023-04-08T10:33:20;100339.38;;;7.82;78.18
49459;BME280;35354;51.296;16.924;2023-04-08T10:35:48;100336.03;;;7.77;78.86
49459;BME280;35354;51.296;16.924;2023-04-08T10:38:15;100324.88;;;7.73;79.03
49459;BME280;35354;51.296;16.924;2023-04-08T10:40:41;100323.53;;;7.57;79.25
49459;BME280;35354;51.296;16.924;2023-04-08T10:43:11;100350.38;;;7.54;79.56
49459;BME280;35354;51.296;16.924;2023-04-08T10:45:38;100326.63;;;7.35;80.16
49459;BME280;35354;51.296;16.924;2023-04-08T10:48:19;100355.50;;;7.57;80.41
49459;BME280;35354;51.296;16.924;2023-04-08T10:50:55;100335.81;;;7.48;80.29
49459;BME280;35354;51.296;16.924;2023-04-08T10:53:28;100327.91;;;7.55;80.33
49459;BME280;35354;51.296;16.924;2023-04-08T10:56:14;100348.31;;;7.68;80.56
49459;BME280;35354;51.296;16.924;2023-04-08T10:58:51;100348.06;;;7.79;80.60
49459;BME280;35354;51.296;16.924;2023-04-08T11:01:17;100345.50;;;7.78;79.07
49459;BME280;35354;51.296;16.924;2023-04-08T11:03:43;100353.25;;;7.79;78.19
49459;BME280;35354;51.296;16.924;2023-04-08T11:06:10;100352.44;;;7.77;78.72
49459;BME280;35354;51.296;16.924;2023-04-08T11:08:36;100335.25;;;7.73;78.18
49459;BME280;35354;51.296;16.924;2023-04-08T11:11:02;100362.63;;;7.85;78.17
49459;BME280;35354;51.296;16.924;2023-04-08T11:13:31;100354.47;;;8.00;78.49
49459;BME280;35354;51.296;16.924;2023-04-08T11:15:58;100345.16;;;8.25;78.71
49459;BME280;35354;51.296;16.924;2023-04-08T11:18:25;100352.66;;;8.39;75.33
49459;BME280;35354;51.296;16.924;2023-04-08T11:20:52;100336.13;;;8.42;74.78
49459;BME280;35354;51.296;16.924;2023-04-08T11:23:18;100350.66;;;8.80;73.25
49459;BME280;35354;51.296;16.924;2023-04-08T11:25:44;100335.31;;;8.72;72.69
49459;BME280;35354;51.296;16.924;2023-04-08T11:28:13;100347.44;;;9.02;72.05
49459;BME280;35354;51.296;16.924;2023-04-08T11:30:39;100331.09;;;8.98;72.30
49459;BME280;35354;51.296;16.924;2023-04-08T11:33:06;100329.97;;;9.07;71.64
49459;BME280;35354;51.296;16.924;2023-04-08T11:35:32;100359.00;;;9.21;72.30
49459;BME280;35354;51.296;16.924;2023-04-08T11:37:58;100347.13;;;9.12;70.25
49459;BME280;35354;51.296;16.924;2023-04-08T11:40:24;100329.34;;;8.98;70.15
49459;BME280;35354;51.296;16.924;2023-04-08T11:42:51;100340.59;;;8.99;70.43
49459;BME280;35354;51.296;16.924;2023-04-08T11:45:18;100348.34;;;9.00;70.31
49459;BME280;35354;51.296;16.924;2023-04-08T11:47:45;100359.72;;;9.26;69.71
49459;BME280;35354;51.296;16.924;2023-04-08T11:50:11;100359.81;;;9.23;69.54
49459;BME280;35354;51.296;16.924;2023-04-08T11:52:48;100358.66;;;9.04;69.52
49459;BME280;35354;51.296;16.924;2023-04-08T11:55:27;100328.88;;;8.84;70.46
49459;BME280;35354;51.296;16.924;2023-04-08T11:57:54;100352.97;;;9.20;69.99
49459;BME280;35354;51.296;16.924;2023-04-08T12:00:20;100330.84;;;9.06;69.70
49459;BME280;35354;51.296;16.924;2023-04-08T12:02:45;100349.00;;;9.37;70.57
49459;BME280;35354;51.296;16.924;2023-04-08T12:05:13;100330.19;;;9.29;69.98
49459;BME280;35354;51.296;16.924;2023-04-08T12:07:38;100326.69;;;9.00;69.76
49459;BME280;35354;51.296;16.924;2023-04-08T12:10:04;100342.91;;;9.08;69.99
49459;BME280;35354;51.296;16.924;2023-04-08T12:12:30;100347.63;;;8.95;69.51
49459;BME280;35354;51.296;16.924;2023-04-08T12:14:55;100326.41;;;8.81;69.61
49459;BME280;35354;51.296;16.924;2023-04-08T12:17:22;100352.03;;;8.93;70.33
49459;BME280;35354;51.296;16.924;2023-04-08T12:19:47;100347.84;;;8.88;69.80
49459;BME280;35354;51.296;16.924;2023-04-08T12:22:12;100344.53;;;9.12;70.93
49459;BME280;35354;51.296;16.924;2023-04-08T12:24:38;100352.06;;;9.21;70.07
49459;BME280;35354;51.296;16.924;2023-04-08T12:27:03;100319.88;;;9.25;70.61
49459;BME280;35354;51.296;16.924;2023-04-08T12:29:29;100317.97;;;9.31;70.36
49459;BME280;35354;51.296;16.924;2023-04-08T12:31:54;100328.00;;;9.43;69.54
49459;BME280;35354;51.296;16.924;2023-04-08T12:34:20;100342.00;;;9.39;69.86
49459;BME280;35354;51.296;16.924;2023-04-08T12:36:45;100343.03;;;9.61;70.63
49459;BME280;35354;51.296;16.924;2023-04-08T12:39:11;100341.38;;;9.85;70.37
49459;BME280;35354;51.296;16.924;2023-04-08T12:41:37;100342.16;;;9.89;70.23
49459;BME280;35354;51.296;16.924;2023-04-08T12:44:02;100349.78;;;9.93;69.83
49459;BME280;35354;51.296;16.924;2023-04-08T12:46:27;100331.28;;;9.76;69.34
49459;BME280;35354;51.296;16.924;2023-04-08T12:48:53;100351.22;;;10.04;70.16
49459;BME280;35354;51.296;16.924;2023-04-08T12:51:18;100335.41;;;9.83;69.21
49459;BME280;35354;51.296;16.924;2023-04-08T12:53:44;100336.09;;;9.88;68.68
49459;BME280;35354;51.296;16.924;2023-04-08T12:56:09;100337.25;;;9.80;69.52
49459;BME280;35354;51.296;16.924;2023-04-08T12:58:35;100335.03;;;9.94;69.94
49459;BME280;35354;51.296;16.924;2023-04-08T13:01:00;100335.25;;;9.88;70.29